sensor_id;sensor_type;location;lat;lon;timestamp;P1;durP1;ratioP1;P2;durP2;ratioP2
76795;SDS011;65745;50.278;18.192;2023-09-07T00:00:40;15.10;;;12.40;;
76795;SDS011;65745;50.278;18.192;2023-09-07T00:03:32;13.60;;;12.00;;
76795;SDS011;65745;50.278;18.192;2023-09-07T00:06:11;14.70;;;12.20;;
76795;SDS011;65745;50.278;18.192;2023-09-07T00:08:43;16.10;;;12.40;;
76795;SDS011;65745;50.278;18.192;2023-09-07T00:11:15;16.60;;;12.40;;
76795;SDS011;65745;50.278;18.192;2023-09-07T00:13:47;12.90;;;11.20;;
76795;SDS011;65745;50.278;18.192;2023-09-07T00:16:20;15.50;;;10.70;;
76795;SDS011;65745;50.278;18.192;2023-09-07T00:18:52;13.90;;;12.40;;
76795;SDS011;65745;50.278;18.192;2023-09-07T00:21:24;16.50;;;12.40;;
76795;SDS011;65745;50.278;18.192;2023-09-07T00:23:57;14.50;;;12.00;;
76795;SDS011;65745;50.278;18.192;2023-09-07T00:26:33;15.90;;;11.70;;
76795;SDS011;65745;50.278;18.192;2023-09-07T00:29:05;15.60;;;11.70;;
76795;SDS011;65745;50.278;18.192;2023-09-07T00:31:38;12.70;;;10.90;;
76795;SDS011;65745;50.278;18.192;2023-09-07T00:34:11;14.30;;;11.50;;
76795;SDS011;65745;50.278;18.192;2023-09-07T00:36:43;12.00;;;10.30;;
76795;SDS011;65745;50.278;18.192;2023-09-07T00:39:15;15.20;;;11.10;;
76795;SDS011;65745;50.278;18.192;2023-09-07T00:41:47;14.40;;;11.60;;
76795;SDS011;65745;50.278;18.192;2023-09-07T00:44:19;12.10;;;10.10;;
76795;SDS011;65745;50.278;18.192;2023-09-07T00:46:52;13.00;;;10.90;;
76795;SDS011;65745;50.278;18.192;2023-09-07T00:49:24;13.10;;;11.60;;
76795;SDS011;65745;50.278;18.192;2023-09-07T00:51:57;12.90;;;10.50;;
76795;SDS011;65745;50.278;18.192;2023-09-07T00:54:30;13.20;;;11.60;;
76795;SDS011;65745;50.278;18.192;2023-09-07T00:57:04;13.50;;;12.10;;
76795;SDS011;65745;50.278;18.192;2023-09-07T00:59:36;14.40;;;11.60;;
76795;SDS011;65745;50.278;18.192;2023-09-07T01:02:08;14.30;;;12.00;;
76795;SDS011;65745;50.278;18.192;2023-09-07T01:04:42;13.60;;;11.10;;
76795;SDS011;65745;50.278;18.192;2023-09-07T01:07:17;14.70;;;12.60;;
76795;SDS011;65745;50.278;18.192;2023-09-07T01:09:54;15.50;;;12.50;;
76795;SDS011;65745;50.278;18.192;2023-09-07T01:12:30;14.00;;;11.30;;
76795;SDS011;65745;50.278;18.192;2023-09-07T01:15:02;13.60;;;10.70;;
76795;SDS011;65745;50.278;18.192;2023-09-07T01:17:35;12.60;;;10.70;;
76795;SDS011;65745;50.278;18.192;2023-09-07T01:20:09;15.10;;;11.20;;
76795;SDS011;65745;50.278;18.192;2023-09-07T01:22:47;12.50;;;11.10;;
76795;SDS011;65745;50.278;18.192;2023-09-07T01:25:20;14.00;;;10.40;;
76795;SDS011;65745;50.278;18.192;2023-09-07T01:27:53;13.00;;;11.60;;
76795;SDS011;65745;50.278;18.192;2023-09-07T01:30:26;13.60;;;10.90;;
76795;SDS011;65745;50.278;18.192;2023-09-07T01:32:59;13.40;;;11.40;;
76795;SDS011;65745;50.278;18.192;2023-09-07T01:35:32;11.90;;;10.60;;
76795;SDS011;65745;50.278;18.192;2023-09-07T01:38:06;15.50;;;12.50;;
76795;SDS011;65745;50.278;18.192;2023-09-07T01:40:38;14.00;;;10.50;;
76795;SDS011;65745;50.278;18.192;2023-09-07T01:43:10;16.60;;;11.60;;
76795;SDS011;65745;50.278;18.192;2023-09-07T01:45:42;12.40;;;9.70;;
76795;SDS011;65745;50.278;18.192;2023-09-07T01:48:14;14.30;;;10.30;;
76795;SDS011;65745;50.278;18.192;2023-09-07T01:50:47;11.30;;;9.90;;
76795;SDS011;65745;50.278;18.192;2023-09-07T01:53:22;11.50;;;9.00;;
76795;SDS011;65745;50.278;18.192;2023-09-07T01:55:55;12.90;;;9.40;;
76795;SDS011;65745;50.278;18.192;2023-09-07T01:58:28;12.00;;;10.40;;
76795;SDS011;65745;50.278;18.192;2023-09-07T02:01:01;13.60;;;10.60;;
76795;SDS011;65745;50.278;18.192;2023-09-07T02:03:33;13.10;;;10.70;;
76795;SDS011;65745;50.278;18.192;2023-09-07T02:06:06;13.90;;;11.00;;
76795;SDS011;65745;50.278;18.192;2023-09-07T02:08:38;17.00;;;12.10;;
76795;SDS011;65745;50.278;18.192;2023-09-07T02:11:11;16.30;;;13.60;;
76795;SDS011;65745;50.278;18.192;2023-09-07T02:13:43;12.60;;;11.30;;
76795;SDS011;65745;50.278;18.192;2023-09-07T02:16:17;12.70;;;10.00;;
76795;SDS011;65745;50.278;18.192;2023-09-07T02:18:50;14.40;;;11.40;;
76795;SDS011;65745;50.278;18.192;2023-09-07T02:21:29;13.30;;;10.50;;
76795;SDS011;65745;50.278;18.192;2023-09-07T02:24:02;11.90;;;10.30;;
76795;SDS011;65745;50.278;18.192;2023-09-07T02:26:34;14.30;;;11.70;;
76795;SDS011;65745;50.278;18.192;2023-09-07T02:29:13;15.90;;;11.10;;
76795;SDS011;65745;50.278;18.192;2023-09-07T02:31:45;14.40;;;11.10;;
76795;SDS011;65745;50.278;18.192;2023-09-07T02:34:17;13.30;;;10.00;;
76795;SDS011;65745;50.278;18.192;2023-09-07T02:36:50;13.80;;;10.60;;
76795;SDS011;65745;50.278;18.192;2023-09-07T02:39:22;12.10;;;10.10;;
76795;SDS011;65745;50.278;18.192;2023-09-07T02:41:55;11.80;;;9.90;;
76795;SDS011;65745;50.278;18.192;2023-09-07T02:44:27;13.30;;;9.90;;
76795;SDS011;65745;50.278;18.192;2023-09-07T02:47:00;11.90;;;10.70;;
76795;SDS011;65745;50.278;18.192;2023-09-07T02:49:32;12.80;;;11.10;;
76795;SDS011;65745;50.278;18.192;2023-09-07T02:52:05;17.50;;;11.00;;
76795;SDS011;65745;50.278;18.192;2023-09-07T02:54:37;15.50;;;12.60;;
76795;SDS011;65745;50.278;18.192;2023-09-07T02:57:11;16.20;;;11.90;;
76795;SDS011;65745;50.278;18.192;2023-09-07T02:59:43;14.70;;;11.80;;
76795;SDS011;65745;50.278;18.192;2023-09-07T03:02:15;13.40;;;11.90;;
76795;SDS011;65745;50.278;18.192;2023-09-07T03:04:48;16.60;;;12.30;;
76795;SDS011;65745;50.278;18.192;2023-09-07T03:07:29;14.50;;;11.50;;
76795;SDS011;65745;50.278;18.192;2023-09-07T03:10:03;15.70;;;12.10;;
76795;SDS011;65745;50.278;18.192;2023-09-07T03:12:35;13.20;;;11.70;;
76795;SDS011;65745;50.278;18.192;2023-09-07T03:15:08;13.90;;;11.70;;
76795;SDS011;65745;50.278;18.192;2023-09-07T03:17:41;13.30;;;10.70;;
76795;SDS011;65745;50.278;18.192;2023-09-07T03:20:15;13.60;;;10.70;;
76795;SDS011;65745;50.278;18.192;2023-09-07T03:22:50;15.30;;;11.40;;
76795;SDS011;65745;50.278;18.192;2023-09-07T03:25:22;12.50;;;10.40;;
76795;SDS011;65745;50.278;18.192;2023-09-07T03:27:55;13.60;;;11.20;;
76795;SDS011;65745;50.278;18.192;2023-09-07T03:30:27;12.50;;;10.60;;
76795;SDS011;65745;50.278;18.192;2023-09-07T03:33:00;11.70;;;10.50;;
76795;SDS011;65745;50.278;18.192;2023-09-07T03:35:33;13.80;;;11.20;;
76795;SDS011;65745;50.278;18.192;2023-09-07T03:38:05;14.30;;;11.30;;
76795;SDS011;65745;50.278;18.192;2023-09-07T03:40:37;14.00;;;10.90;;
76795;SDS011;65745;50.278;18.192;2023-09-07T03:43:10;15.20;;;10.30;;
76795;SDS011;65745;50.278;18.192;2023-09-07T03:45:42;13.70;;;10.80;;
76795;SDS011;65745;50.278;18.192;2023-09-07T03:48:14;15.40;;;11.30;;
76795;SDS011;65745;50.278;18.192;2023-09-07T03:50:46;13.80;;;10.40;;
76795;SDS011;65745;50.278;18.192;2023-09-07T03:53:18;14.60;;;11.50;;
76795;SDS011;65745;50.278;18.192;2023-09-07T03:55:50;16.40;;;11.60;;
76795;SDS011;65745;50.278;18.192;2023-09-07T03:58:23;13.30;;;10.90;;
76795;SDS011;65745;50.278;18.192;2023-09-07T04:00:58;13.90;;;10.90;;
76795;SDS011;65745;50.278;18.192;2023-09-07T04:03:30;13.30;;;11.30;;
76795;SDS011;65745;50.278;18.192;2023-09-07T04:06:03;14.00;;;11.10;;
76795;SDS011;65745;50.278;18.192;2023-09-07T04:08:36;13.80;;;10.80;;
76795;SDS011;65745;50.278;18.192;2023-09-07T04:11:08;14.30;;;10.70;;
76795;SDS011;65745;50.278;18.192;2023-09-07T04:13:40;16.10;;;12.00;;
76795;SDS011;65745;50.278;18.192;2023-09-07T04:16:12;15.20;;;12.10;;
76795;SDS011;65745;50.278;18.192;2023-09-07T04:18:44;13.20;;;11.10;;
76795;SDS011;65745;50.278;18.192;2023-09-07T04:21:16;13.20;;;11.00;;
76795;SDS011;65745;50.278;18.192;2023-09-07T04:23:48;13.30;;;10.70;;
76795;SDS011;65745;50.278;18.192;2023-09-07T04:26:20;13.90;;;11.30;;
76795;SDS011;65745;50.278;18.192;2023-09-07T04:28:52;13.70;;;11.10;;
76795;SDS011;65745;50.278;18.192;2023-09-07T04:31:25;15.60;;;11.50;;
76795;SDS011;65745;50.278;18.192;2023-09-07T04:33:57;13.70;;;11.30;;
76795;SDS011;65745;50.278;18.192;2023-09-07T04:36:31;12.30;;;10.40;;
76795;SDS011;65745;50.278;18.192;2023-09-07T04:39:04;15.30;;;12.70;;
76795;SDS011;65745;50.278;18.192;2023-09-07T04:41:36;13.50;;;10.60;;
76795;SDS011;65745;50.278;18.192;2023-09-07T04:44:08;13.30;;;11.30;;
76795;SDS011;65745;50.278;18.192;2023-09-07T04:46:41;13.30;;;11.20;;
76795;SDS011;65745;50.278;18.192;2023-09-07T04:49:13;14.50;;;12.60;;
76795;SDS011;65745;50.278;18.192;2023-09-07T04:51:46;16.20;;;12.60;;
76795;SDS011;65745;50.278;18.192;2023-09-07T04:54:18;16.90;;;13.60;;
76795;SDS011;65745;50.278;18.192;2023-09-07T04:56:50;16.30;;;12.10;;
76795;SDS011;65745;50.278;18.192;2023-09-07T04:59:22;13.80;;;11.20;;
76795;SDS011;65745;50.278;18.192;2023-09-07T05:01:58;18.70;;;13.00;;
76795;SDS011;65745;50.278;18.192;2023-09-07T05:04:32;15.70;;;12.60;;
76795;SDS011;65745;50.278;18.192;2023-09-07T05:07:04;16.60;;;12.90;;
76795;SDS011;65745;50.278;18.192;2023-09-07T05:09:37;14.90;;;11.80;;
76795;SDS011;65745;50.278;18.192;2023-09-07T05:12:10;15.40;;;13.00;;
76795;SDS011;65745;50.278;18.192;2023-09-07T05:14:43;13.70;;;11.00;;
76795;SDS011;65745;50.278;18.192;2023-09-07T05:17:16;16.00;;;12.00;;
76795;SDS011;65745;50.278;18.192;2023-09-07T05:19:48;16.50;;;13.70;;
76795;SDS011;65745;50.278;18.192;2023-09-07T05:22:20;15.70;;;12.70;;
76795;SDS011;65745;50.278;18.192;2023-09-07T05:24:52;14.80;;;12.40;;
76795;SDS011;65745;50.278;18.192;2023-09-07T05:27:24;14.60;;;12.60;;
76795;SDS011;65745;50.278;18.192;2023-09-07T05:29:56;15.60;;;12.80;;
76795;SDS011;65745;50.278;18.192;2023-09-07T05:32:29;13.80;;;12.30;;
76795;SDS011;65745;50.278;18.192;2023-09-07T05:35:01;15.70;;;14.10;;
76795;SDS011;65745;50.278;18.192;2023-09-07T05:37:35;15.80;;;13.60;;
76795;SDS011;65745;50.278;18.192;2023-09-07T05:40:08;19.70;;;14.60;;
76795;SDS011;65745;50.278;18.192;2023-09-07T05:42:41;19.20;;;14.60;;
76795;SDS011;65745;50.278;18.192;2023-09-07T05:45:13;17.90;;;14.00;;
76795;SDS011;65745;50.278;18.192;2023-09-07T05:47:46;18.40;;;16.40;;
76795;SDS011;65745;50.278;18.192;2023-09-07T05:50:19;20.40;;;15.70;;
76795;SDS011;65745;50.278;18.192;2023-09-07T05:52:52;19.70;;;15.70;;
76795;SDS011;65745;50.278;18.192;2023-09-07T05:55:24;17.40;;;15.20;;
76795;SDS011;65745;50.278;18.192;2023-09-07T05:57:56;17.80;;;14.40;;
76795;SDS011;65745;50.278;18.192;2023-09-07T06:00:33;18.00;;;14.30;;
76795;SDS011;65745;50.278;18.192;2023-09-07T06:03:08;20.20;;;15.10;;
76795;SDS011;65745;50.278;18.192;2023-09-07T06:05:41;18.60;;;13.70;;
76795;SDS011;65745;50.278;18.192;2023-09-07T06:08:14;18.90;;;14.10;;
76795;SDS011;65745;50.278;18.192;2023-09-07T06:10:46;17.80;;;14.70;;
76795;SDS011;65745;50.278;18.192;2023-09-07T06:13:18;16.90;;;14.50;;
76795;SDS011;65745;50.278;18.192;2023-09-07T06:15:51;18.60;;;14.70;;
76795;SDS011;65745;50.278;18.192;2023-09-07T06:18:23;17.80;;;14.70;;
76795;SDS011;65745;50.278;18.192;2023-09-07T06:20:56;19.40;;;15.60;;
76795;SDS011;65745;50.278;18.192;2023-09-07T06:23:28;16.80;;;13.00;;
76795;SDS011;65745;50.278;18.192;2023-09-07T06:26:01;20.10;;;15.90;;
76795;SDS011;65745;50.278;18.192;2023-09-07T06:28:33;17.60;;;14.30;;
76795;SDS011;65745;50.278;18.192;2023-09-07T06:31:05;17.70;;;14.50;;
76795;SDS011;65745;50.278;18.192;2023-09-07T06:33:38;17.90;;;15.70;;
76795;SDS011;65745;50.278;18.192;2023-09-07T06:36:10;18.00;;;13.70;;
76795;SDS011;65745;50.278;18.192;2023-09-07T06:38:43;17.50;;;13.20;;
76795;SDS011;65745;50.278;18.192;2023-09-07T06:41:15;18.80;;;14.70;;
76795;SDS011;65745;50.278;18.192;2023-09-07T06:43:47;19.60;;;14.50;;
76795;SDS011;65745;50.278;18.192;2023-09-07T06:46:20;17.20;;;13.90;;
76795;SDS011;65745;50.278;18.192;2023-09-07T06:48:53;16.20;;;13.60;;
76795;SDS011;65745;50.278;18.192;2023-09-07T06:51:26;16.20;;;13.50;;
76795;SDS011;65745;50.278;18.192;2023-09-07T06:53:58;19.70;;;12.90;;
76795;SDS011;65745;50.278;18.192;2023-09-07T06:56:30;16.20;;;13.10;;
76795;SDS011;65745;50.278;18.192;2023-09-07T06:59:04;18.50;;;12.20;;
76795;SDS011;65745;50.278;18.192;2023-09-07T07:01:36;16.60;;;12.50;;
76795;SDS011;65745;50.278;18.192;2023-09-07T07:04:09;17.40;;;11.80;;
76795;SDS011;65745;50.278;18.192;2023-09-07T07:06:42;16.10;;;12.10;;
76795;SDS011;65745;50.278;18.192;2023-09-07T07:09:14;17.30;;;12.00;;
76795;SDS011;65745;50.278;18.192;2023-09-07T07:11:47;15.90;;;12.20;;
76795;SDS011;65745;50.278;18.192;2023-09-07T07:14:19;15.10;;;12.90;;
76795;SDS011;65745;50.278;18.192;2023-09-07T07:16:51;15.10;;;12.10;;
76795;SDS011;65745;50.278;18.192;2023-09-07T07:19:24;15.30;;;12.50;;
76795;SDS011;65745;50.278;18.192;2023-09-07T07:21:57;14.90;;;12.60;;
76795;SDS011;65745;50.278;18.192;2023-09-07T07:24:29;16.10;;;12.40;;
76795;SDS011;65745;50.278;18.192;2023-09-07T07:27:02;15.10;;;12.40;;
76795;SDS011;65745;50.278;18.192;2023-09-07T07:29:36;15.60;;;13.00;;
76795;SDS011;65745;50.278;18.192;2023-09-07T07:32:09;17.30;;;12.50;;
76795;SDS011;65745;50.278;18.192;2023-09-07T07:34:41;15.40;;;12.70;;
76795;SDS011;65745;50.278;18.192;2023-09-07T07:37:13;16.80;;;13.10;;
76795;SDS011;65745;50.278;18.192;2023-09-07T07:39:46;17.40;;;12.40;;
76795;SDS011;65745;50.278;18.192;2023-09-07T07:42:20;17.80;;;13.00;;
76795;SDS011;65745;50.278;18.192;2023-09-07T07:44:52;22.10;;;12.10;;
76795;SDS011;65745;50.278;18.192;2023-09-07T07:47:24;14.30;;;11.60;;
76795;SDS011;65745;50.278;18.192;2023-09-07T07:49:57;16.00;;;12.10;;
76795;SDS011;65745;50.278;18.192;2023-09-07T07:52:29;17.00;;;12.80;;
76795;SDS011;65745;50.278;18.192;2023-09-07T07:55:02;14.80;;;11.40;;
76795;SDS011;65745;50.278;18.192;2023-09-07T07:57:35;13.90;;;10.40;;
76795;SDS011;65745;50.278;18.192;2023-09-07T08:00:09;13.50;;;10.60;;
76795;SDS011;65745;50.278;18.192;2023-09-07T08:02:46;14.10;;;10.30;;
76795;SDS011;65745;50.278;18.192;2023-09-07T08:05:19;14.40;;;10.50;;
76795;SDS011;65745;50.278;18.192;2023-09-07T08:07:51;13.20;;;10.60;;
76795;SDS011;65745;50.278;18.192;2023-09-07T08:10:23;13.10;;;9.80;;
76795;SDS011;65745;50.278;18.192;2023-09-07T08:13:00;12.30;;;9.10;;
76795;SDS011;65745;50.278;18.192;2023-09-07T08:15:33;12.80;;;9.20;;
76795;SDS011;65745;50.278;18.192;2023-09-07T08:18:07;12.10;;;9.20;;
76795;SDS011;65745;50.278;18.192;2023-09-07T08:20:40;11.60;;;8.70;;
76795;SDS011;65745;50.278;18.192;2023-09-07T08:23:12;14.10;;;8.40;;
76795;SDS011;65745;50.278;18.192;2023-09-07T08:25:44;11.00;;;8.00;;
76795;SDS011;65745;50.278;18.192;2023-09-07T08:28:17;10.40;;;7.50;;
76795;SDS011;65745;50.278;18.192;2023-09-07T08:30:51;11.30;;;7.30;;
76795;SDS011;65745;50.278;18.192;2023-09-07T08:33:24;9.70;;;7.70;;
76795;SDS011;65745;50.278;18.192;2023-09-07T08:35:58;10.30;;;7.40;;
76795;SDS011;65745;50.278;18.192;2023-09-07T08:38:30;12.00;;;8.50;;
76795;SDS011;65745;50.278;18.192;2023-09-07T08:41:03;11.60;;;7.20;;
76795;SDS011;65745;50.278;18.192;2023-09-07T08:43:39;9.00;;;6.90;;
76795;SDS011;65745;50.278;18.192;2023-09-07T08:46:17;9.80;;;7.40;;
76795;SDS011;65745;50.278;18.192;2023-09-07T08:48:51;11.80;;;8.30;;
76795;SDS011;65745;50.278;18.192;2023-09-07T08:51:28;22.60;;;8.10;;
76795;SDS011;65745;50.278;18.192;2023-09-07T08:54:02;9.70;;;6.90;;
76795;SDS011;65745;50.278;18.192;2023-09-07T08:56:34;11.80;;;6.90;;
76795;SDS011;65745;50.278;18.192;2023-09-07T08:59:07;7.70;;;5.80;;
76795;SDS011;65745;50.278;18.192;2023-09-07T09:01:40;9.30;;;5.60;;
76795;SDS011;65745;50.278;18.192;2023-09-07T09:04:12;6.90;;;5.50;;
76795;SDS011;65745;50.278;18.192;2023-09-07T09:06:45;9.20;;;5.70;;
76795;SDS011;65745;50.278;18.192;2023-09-07T09:09:23;9.30;;;5.70;;
76795;SDS011;65745;50.278;18.192;2023-09-07T09:11:57;7.80;;;5.60;;
76795;SDS011;65745;50.278;18.192;2023-09-07T09:14:38;7.80;;;5.90;;
76795;SDS011;65745;50.278;18.192;2023-09-07T09:17:15;7.70;;;6.10;;
76795;SDS011;65745;50.278;18.192;2023-09-07T09:19:47;6.80;;;6.10;;
76795;SDS011;65745;50.278;18.192;2023-09-07T09:22:19;8.50;;;5.90;;
76795;SDS011;65745;50.278;18.192;2023-09-07T09:24:53;6.90;;;5.80;;
76795;SDS011;65745;50.278;18.192;2023-09-07T09:27:25;9.30;;;6.10;;
76795;SDS011;65745;50.278;18.192;2023-09-07T09:29:57;6.70;;;5.60;;
76795;SDS011;65745;50.278;18.192;2023-09-07T09:32:30;7.50;;;6.30;;
76795;SDS011;65745;50.278;18.192;2023-09-07T09:35:03;6.80;;;5.30;;
76795;SDS011;65745;50.278;18.192;2023-09-07T09:37:42;6.40;;;5.10;;
76795;SDS011;65745;50.278;18.192;2023-09-07T09:40:16;6.30;;;5.40;;
76795;SDS011;65745;50.278;18.192;2023-09-07T09:42:49;8.40;;;5.80;;
76795;SDS011;65745;50.278;18.192;2023-09-07T09:45:25;5.80;;;5.20;;
76795;SDS011;65745;50.278;18.192;2023-09-07T09:47:59;6.40;;;5.10;;
76795;SDS011;65745;50.278;18.192;2023-09-07T09:50:33;6.40;;;5.10;;
76795;SDS011;65745;50.278;18.192;2023-09-07T09:53:07;5.80;;;5.10;;
76795;SDS011;65745;50.278;18.192;2023-09-07T09:55:45;6.10;;;5.50;;
76795;SDS011;65745;50.278;18.192;2023-09-07T09:58:18;6.90;;;5.40;;
76795;SDS011;65745;50.278;18.192;2023-09-07T10:00:53;8.30;;;5.90;;
76795;SDS011;65745;50.278;18.192;2023-09-07T10:03:28;6.80;;;5.30;;
76795;SDS011;65745;50.278;18.192;2023-09-07T10:06:08;6.00;;;5.10;;
76795;SDS011;65745;50.278;18.192;2023-09-07T10:08:43;6.70;;;5.10;;
76795;SDS011;65745;50.278;18.192;2023-09-07T10:11:28;7.10;;;5.30;;
76795;SDS011;65745;50.278;18.192;2023-09-07T10:14:02;5.60;;;4.90;;
76795;SDS011;65745;50.278;18.192;2023-09-07T10:16:42;7.60;;;5.30;;
76795;SDS011;65745;50.278;18.192;2023-09-07T10:19:17;6.20;;;4.90;;
76795;SDS011;65745;50.278;18.192;2023-09-07T10:21:50;6.10;;;4.80;;
76795;SDS011;65745;50.278;18.192;2023-09-07T10:24:25;6.20;;;5.00;;
76795;SDS011;65745;50.278;18.192;2023-09-07T10:26:59;6.70;;;5.10;;
76795;SDS011;65745;50.278;18.192;2023-09-07T10:29:41;6.10;;;5.40;;
76795;SDS011;65745;50.278;18.192;2023-09-07T10:32:15;5.40;;;4.90;;
76795;SDS011;65745;50.278;18.192;2023-09-07T10:34:48;5.70;;;4.80;;
76795;SDS011;65745;50.278;18.192;2023-09-07T10:37:27;7.10;;;6.00;;
76795;SDS011;65745;50.278;18.192;2023-09-07T10:40:00;6.00;;;5.00;;
76795;SDS011;65745;50.278;18.192;2023-09-07T10:42:33;9.20;;;6.10;;
76795;SDS011;65745;50.278;18.192;2023-09-07T10:45:12;6.30;;;4.70;;
76795;SDS011;65745;50.278;18.192;2023-09-07T10:47:47;5.40;;;4.80;;
76795;SDS011;65745;50.278;18.192;2023-09-07T10:50:19;6.40;;;5.20;;
76795;SDS011;65745;50.278;18.192;2023-09-07T10:52:52;5.70;;;5.10;;
76795;SDS011;65745;50.278;18.192;2023-09-07T10:55:25;6.10;;;5.50;;
76795;SDS011;65745;50.278;18.192;2023-09-07T10:57:58;6.10;;;4.80;;
76795;SDS011;65745;50.278;18.192;2023-09-07T11:00:30;6.60;;;4.70;;
76795;SDS011;65745;50.278;18.192;2023-09-07T11:03:08;8.30;;;5.10;;
76795;SDS011;65745;50.278;18.192;2023-09-07T11:05:44;6.80;;;4.80;;
76795;SDS011;65745;50.278;18.192;2023-09-07T11:08:17;5.20;;;4.20;;
76795;SDS011;65745;50.278;18.192;2023-09-07T11:10:51;6.90;;;4.80;;
76795;SDS011;65745;50.278;18.192;2023-09-07T11:13:23;5.10;;;4.60;;
76795;SDS011;65745;50.278;18.192;2023-09-07T11:15:57;6.00;;;4.60;;
76795;SDS011;65745;50.278;18.192;2023-09-07T11:18:29;5.40;;;4.80;;
76795;SDS011;65745;50.278;18.192;2023-09-07T11:21:05;5.50;;;4.70;;
76795;SDS011;65745;50.278;18.192;2023-09-07T11:23:37;4.60;;;3.90;;
76795;SDS011;65745;50.278;18.192;2023-09-07T11:26:10;5.30;;;4.30;;
76795;SDS011;65745;50.278;18.192;2023-09-07T11:28:46;5.60;;;5.00;;
76795;SDS011;65745;50.278;18.192;2023-09-07T11:31:19;5.80;;;5.00;;
76795;SDS011;65745;50.278;18.192;2023-09-07T11:33:53;9.10;;;4.30;;
76795;SDS011;65745;50.278;18.192;2023-09-07T11:36:25;5.20;;;4.00;;
76795;SDS011;65745;50.278;18.192;2023-09-07T11:38:57;5.70;;;4.70;;
76795;SDS011;65745;50.278;18.192;2023-09-07T11:41:30;6.00;;;4.20;;
76795;SDS011;65745;50.278;18.192;2023-09-07T11:44:02;5.10;;;4.10;;
76795;SDS011;65745;50.278;18.192;2023-09-07T11:46:34;5.30;;;4.30;;
76795;SDS011;65745;50.278;18.192;2023-09-07T11:49:07;5.30;;;4.00;;
76795;SDS011;65745;50.278;18.192;2023-09-07T11:51:39;6.00;;;4.50;;
76795;SDS011;65745;50.278;18.192;2023-09-07T11:54:12;5.20;;;4.70;;
76795;SDS011;65745;50.278;18.192;2023-09-07T11:56:44;5.90;;;4.50;;
76795;SDS011;65745;50.278;18.192;2023-09-07T11:59:16;5.10;;;4.20;;
76795;SDS011;65745;50.278;18.192;2023-09-07T12:01:48;5.10;;;4.30;;
76795;SDS011;65745;50.278;18.192;2023-09-07T12:04:21;6.00;;;4.30;;
76795;SDS011;65745;50.278;18.192;2023-09-07T12:06:53;5.20;;;4.00;;
76795;SDS011;65745;50.278;18.192;2023-09-07T12:09:25;6.40;;;4.20;;
76795;SDS011;65745;50.278;18.192;2023-09-07T12:11:57;5.90;;;4.50;;
76795;SDS011;65745;50.278;18.192;2023-09-07T12:14:31;5.10;;;4.00;;
76795;SDS011;65745;50.278;18.192;2023-09-07T12:17:03;5.10;;;4.50;;
76795;SDS011;65745;50.278;18.192;2023-09-07T12:19:35;5.70;;;4.30;;
76795;SDS011;65745;50.278;18.192;2023-09-07T12:22:11;4.60;;;4.00;;
76795;SDS011;65745;50.278;18.192;2023-09-07T12:24:43;5.20;;;4.30;;
76795;SDS011;65745;50.278;18.192;2023-09-07T12:27:21;4.70;;;4.30;;
76795;SDS011;65745;50.278;18.192;2023-09-07T12:29:54;5.60;;;4.30;;
76795;SDS011;65745;50.278;18.192;2023-09-07T12:32:26;5.10;;;3.90;;
76795;SDS011;65745;50.278;18.192;2023-09-07T12:34:58;4.80;;;4.00;;
76795;SDS011;65745;50.278;18.192;2023-09-07T12:37:31;6.50;;;4.40;;
76795;SDS011;65745;50.278;18.192;2023-09-07T12:40:03;4.60;;;4.20;;
76795;SDS011;65745;50.278;18.192;2023-09-07T12:42:41;5.70;;;4.20;;
76795;SDS011;65745;50.278;18.192;2023-09-07T12:45:14;5.10;;;4.60;;
76795;SDS011;65745;50.278;18.192;2023-09-07T12:47:46;4.90;;;4.20;;
76795;SDS011;65745;50.278;18.192;2023-09-07T12:50:19;6.70;;;4.30;;
76795;SDS011;65745;50.278;18.192;2023-09-07T12:52:52;5.80;;;4.50;;
76795;SDS011;65745;50.278;18.192;2023-09-07T12:55:24;6.00;;;4.00;;
76795;SDS011;65745;50.278;18.192;2023-09-07T12:57:58;5.40;;;4.30;;
76795;SDS011;65745;50.278;18.192;2023-09-07T13:00:31;6.60;;;4.70;;
76795;SDS011;65745;50.278;18.192;2023-09-07T13:03:04;7.60;;;4.50;;
76795;SDS011;65745;50.278;18.192;2023-09-07T13:05:37;6.70;;;6.00;;
76795;SDS011;65745;50.278;18.192;2023-09-07T13:08:09;5.30;;;4.30;;
76795;SDS011;65745;50.278;18.192;2023-09-07T13:10:42;4.30;;;3.90;;
76795;SDS011;65745;50.278;18.192;2023-09-07T13:13:14;6.00;;;4.60;;
76795;SDS011;65745;50.278;18.192;2023-09-07T13:15:46;4.80;;;4.00;;
76795;SDS011;65745;50.278;18.192;2023-09-07T13:18:18;6.20;;;4.50;;
76795;SDS011;65745;50.278;18.192;2023-09-07T13:20:51;6.00;;;4.40;;
76795;SDS011;65745;50.278;18.192;2023-09-07T13:23:28;5.50;;;4.30;;
76795;SDS011;65745;50.278;18.192;2023-09-07T13:26:01;4.80;;;4.30;;
76795;SDS011;65745;50.278;18.192;2023-09-07T13:28:33;4.70;;;4.00;;
76795;SDS011;65745;50.278;18.192;2023-09-07T13:31:06;4.70;;;4.10;;
76795;SDS011;65745;50.278;18.192;2023-09-07T13:33:38;6.00;;;4.70;;
76795;SDS011;65745;50.278;18.192;2023-09-07T13:36:10;5.60;;;4.70;;
76795;SDS011;65745;50.278;18.192;2023-09-07T13:38:42;5.20;;;4.20;;
76795;SDS011;65745;50.278;18.192;2023-09-07T13:41:14;5.90;;;4.10;;
76795;SDS011;65745;50.278;18.192;2023-09-07T13:43:46;4.80;;;4.30;;
76795;SDS011;65745;50.278;18.192;2023-09-07T13:46:19;5.40;;;4.30;;
76795;SDS011;65745;50.278;18.192;2023-09-07T13:48:52;4.90;;;4.30;;
76795;SDS011;65745;50.278;18.192;2023-09-07T13:51:25;4.30;;;3.90;;
76795;SDS011;65745;50.278;18.192;2023-09-07T13:54:00;4.80;;;4.00;;
76795;SDS011;65745;50.278;18.192;2023-09-07T13:56:33;5.50;;;4.10;;
76795;SDS011;65745;50.278;18.192;2023-09-07T13:59:06;4.40;;;3.90;;
76795;SDS011;65745;50.278;18.192;2023-09-07T14:01:39;5.10;;;4.60;;
76795;SDS011;65745;50.278;18.192;2023-09-07T14:04:11;7.30;;;4.20;;
76795;SDS011;65745;50.278;18.192;2023-09-07T14:06:43;4.60;;;4.20;;
76795;SDS011;65745;50.278;18.192;2023-09-07T14:09:16;5.10;;;4.40;;
76795;SDS011;65745;50.278;18.192;2023-09-07T14:11:49;5.50;;;4.70;;
76795;SDS011;65745;50.278;18.192;2023-09-07T14:14:21;4.90;;;4.20;;
76795;SDS011;65745;50.278;18.192;2023-09-07T14:16:53;4.70;;;4.20;;
76795;SDS011;65745;50.278;18.192;2023-09-07T14:19:27;4.70;;;4.30;;
76795;SDS011;65745;50.278;18.192;2023-09-07T14:22:00;5.70;;;4.60;;
76795;SDS011;65745;50.278;18.192;2023-09-07T14:24:32;5.30;;;4.50;;
76795;SDS011;65745;50.278;18.192;2023-09-07T14:27:04;5.00;;;4.20;;
76795;SDS011;65745;50.278;18.192;2023-09-07T14:29:38;5.60;;;4.40;;
76795;SDS011;65745;50.278;18.192;2023-09-07T14:32:10;6.60;;;4.20;;
76795;SDS011;65745;50.278;18.192;2023-09-07T14:34:42;4.40;;;3.60;;
76795;SDS011;65745;50.278;18.192;2023-09-07T14:37:14;5.10;;;4.40;;
76795;SDS011;65745;50.278;18.192;2023-09-07T14:39:46;4.90;;;4.30;;
76795;SDS011;65745;50.278;18.192;2023-09-07T14:42:19;4.50;;;4.10;;
76795;SDS011;65745;50.278;18.192;2023-09-07T14:44:51;4.90;;;3.90;;
76795;SDS011;65745;50.278;18.192;2023-09-07T14:47:26;5.00;;;4.10;;
76795;SDS011;65745;50.278;18.192;2023-09-07T14:49:59;4.60;;;4.10;;
76795;SDS011;65745;50.278;18.192;2023-09-07T14:52:32;6.10;;;4.50;;
76795;SDS011;65745;50.278;18.192;2023-09-07T14:55:09;4.90;;;4.00;;